sim
Sign-in with your pilot id or email,
or register
Callsign
Passwort

Schedule Details

Flight Number: EWG1700 (3)
Departure: Munich Airport (EDDM) at 12:45
Arrival: Thessaloniki International Airport (LGTS) at 14:45
Route: Eurowings Passenger Schedule. Enter filed route here before submitting Pirep.

Weather Information
Getting current METAR information for EDDM 252120Z 17006KT CAVOK 17/03 Q1009 NOSIG
Getting current METAR information for LGTS 252120Z 00000KT CAVOK 15/12 Q1020 NOSIG

Schedule Frequency

Route Map